createdAt,value
2023-09-05T00:00:01.831Z,83.47
2023-09-05T00:02:28.199Z,83.68
2023-09-05T00:04:58.067Z,83.35
2023-09-05T00:07:25.414Z,83.33
2023-09-05T00:09:51.786Z,83.21
2023-09-05T00:12:18.204Z,83.20
2023-09-05T00:14:44.547Z,83.15
2023-09-05T00:17:10.908Z,83.28
2023-09-05T00:19:37.259Z,83.50
2023-09-05T00:22:03.707Z,83.45
2023-09-05T00:24:32.790Z,83.42
2023-09-05T00:27:00.606Z,83.32
2023-09-05T00:29:27.688Z,83.32
2023-09-05T00:31:55.094Z,82.94
2023-09-05T00:34:21.582Z,83.24
2023-09-05T00:36:47.952Z,83.82
2023-09-05T00:39:14.660Z,83.38
2023-09-05T00:41:41.010Z,82.71
2023-09-05T00:44:07.419Z,83.62
2023-09-05T00:46:34.540Z,83.94
2023-09-05T00:49:01.598Z,83.55
2023-09-05T00:51:28.051Z,83.11
2023-09-05T00:53:54.442Z,82.94
2023-09-05T00:56:20.926Z,82.87
2023-09-05T00:58:47.362Z,82.92
2023-09-05T01:01:13.759Z,82.70
2023-09-05T01:03:40.148Z,83.52
2023-09-05T01:06:12.065Z,83.06
2023-09-05T01:08:47.972Z,83.02
2023-09-05T01:11:14.454Z,82.56
2023-09-05T01:13:40.833Z,82.58
2023-09-05T01:16:07.318Z,82.45
2023-09-05T01:18:33.818Z,82.44
2023-09-05T01:21:30.138Z,82.53
2023-09-05T01:24:08.383Z,82.93
2023-09-05T01:26:34.829Z,82.85
2023-09-05T01:29:01.594Z,82.77
2023-09-05T01:31:28.203Z,82.63
2023-09-05T01:33:54.573Z,82.71
2023-09-05T01:36:20.932Z,82.55
2023-09-05T01:38:47.350Z,83.12
2023-09-05T01:41:13.852Z,82.77
2023-09-05T01:43:40.253Z,82.76
2023-09-05T01:46:06.622Z,82.87
2023-09-05T01:48:32.992Z,82.58
2023-09-05T01:50:59.370Z,82.51
2023-09-05T01:53:25.986Z,82.68
2023-09-05T01:55:52.542Z,82.36
2023-09-05T01:58:19.136Z,82.44
2023-09-05T02:00:45.572Z,81.99
2023-09-05T02:03:12.097Z,82.15
2023-09-05T02:05:38.537Z,82.50
2023-09-05T02:10:40.076Z,81.83
2023-09-05T02:13:06.402Z,82.31
2023-09-05T02:15:32.746Z,82.23
2023-09-05T02:17:59.114Z,82.07
2023-09-05T02:20:25.495Z,81.85
2023-09-05T02:22:51.832Z,81.48
2023-09-05T02:25:18.176Z,81.86
2023-09-05T02:27:44.522Z,81.21
2023-09-05T02:30:11.047Z,81.54
2023-09-05T02:32:37.398Z,81.43
2023-09-05T02:35:04.026Z,81.52
2023-09-05T02:37:30.453Z,81.28
2023-09-05T02:39:56.782Z,82.02
2023-09-05T02:42:23.111Z,82.28
2023-09-05T02:44:52.891Z,81.64
2023-09-05T02:47:19.238Z,81.40
2023-09-05T02:49:45.559Z,81.07
2023-09-05T02:52:12.274Z,80.49
2023-09-05T02:54:38.833Z,80.96
2023-09-05T02:57:05.178Z,80.92
2023-09-05T02:59:31.526Z,81.23
2023-09-05T03:01:57.910Z,81.06
2023-09-05T03:04:24.284Z,81.16
2023-09-05T03:06:50.648Z,81.84
2023-09-05T03:09:17.031Z,81.78
2023-09-05T03:11:43.398Z,81.95
2023-09-05T03:14:09.774Z,82.51
2023-09-05T03:16:36.130Z,82.37
2023-09-05T03:19:02.567Z,82.18
2023-09-05T03:21:29.138Z,81.93
2023-09-05T03:23:56.262Z,82.10
2023-09-05T03:26:22.786Z,82.07
2023-09-05T03:28:49.174Z,82.10
2023-09-05T03:31:15.742Z,82.33
2023-09-05T03:33:42.278Z,83.57
2023-09-05T03:36:08.663Z,83.46
2023-09-05T03:38:35.032Z,83.40
2023-09-05T03:41:01.523Z,83.36
2023-09-05T03:43:28.257Z,83.52
2023-09-05T03:45:54.859Z,83.72
2023-09-05T03:48:21.345Z,84.19
2023-09-05T03:50:47.790Z,83.74
2023-09-05T03:53:14.144Z,84.18
2023-09-05T03:55:40.548Z,84.03
2023-09-05T03:58:08.150Z,84.31
2023-09-05T04:00:35.420Z,83.97
2023-09-05T04:03:02.751Z,83.59
2023-09-05T04:05:30.640Z,83.76
2023-09-05T04:07:57.033Z,83.36
2023-09-05T04:10:23.424Z,83.43
2023-09-05T04:12:52.650Z,83.71
2023-09-05T04:15:19.060Z,83.45
2023-09-05T04:17:45.440Z,83.46
2023-09-05T04:20:12.072Z,82.84
2023-09-05T04:22:38.476Z,82.89
2023-09-05T04:25:05.217Z,83.50
2023-09-05T04:27:31.619Z,83.40
2023-09-05T04:29:57.968Z,84.01
2023-09-05T04:32:24.618Z,83.92
2023-09-05T04:34:50.961Z,83.67
2023-09-05T04:37:17.313Z,83.23
2023-09-05T04:39:43.687Z,83.94
2023-09-05T04:42:10.135Z,84.25
2023-09-05T04:44:36.530Z,84.67
2023-09-05T04:47:25.118Z,84.52
2023-09-05T04:49:53.461Z,84.38
2023-09-05T04:52:21.423Z,84.20
2023-09-05T04:54:47.951Z,84.48
2023-09-05T04:57:15.102Z,84.68
2023-09-05T04:59:43.885Z,84.46
2023-09-05T05:02:10.670Z,84.18
2023-09-05T05:04:38.197Z,83.46
2023-09-05T05:07:04.858Z,83.65
2023-09-05T05:09:31.200Z,83.77
2023-09-05T05:11:57.633Z,83.64
2023-09-05T05:14:24.068Z,83.73
2023-09-05T05:16:51.036Z,83.50
2023-09-05T05:19:17.561Z,83.14
2023-09-05T05:21:44.039Z,83.56
2023-09-05T05:24:10.420Z,83.56
2023-09-05T05:26:36.770Z,83.23
2023-09-05T05:29:03.123Z,83.50
2023-09-05T05:31:29.528Z,82.82
2023-09-05T05:33:56.131Z,82.67
2023-09-05T05:36:22.506Z,82.62
2023-09-05T05:38:48.872Z,83.08
2023-09-05T05:41:15.264Z,83.04
2023-09-05T05:43:42.492Z,82.81
2023-09-05T05:46:08.941Z,82.71
2023-09-05T05:48:35.337Z,82.77
2023-09-05T05:51:01.864Z,83.08
2023-09-05T05:53:29.393Z,82.65
2023-09-05T05:55:55.864Z,82.99
2023-09-05T05:58:22.307Z,81.90
2023-09-05T06:00:48.693Z,79.39
2023-09-05T06:03:15.083Z,76.28
2023-09-05T06:05:41.586Z,73.77
2023-09-05T06:08:07.998Z,70.52
2023-09-05T06:10:34.377Z,69.25
2023-09-05T06:13:00.777Z,67.64
2023-09-05T06:15:27.210Z,67.07
2023-09-05T06:17:53.859Z,65.81
2023-09-05T06:20:20.260Z,64.84
2023-09-05T06:22:46.634Z,63.73
2023-09-05T06:25:13.118Z,64.63
2023-09-05T06:27:39.494Z,65.54
2023-09-05T06:30:06.487Z,67.17
2023-09-05T06:32:32.856Z,68.18
2023-09-05T06:34:59.242Z,69.53
2023-09-05T06:37:25.663Z,69.96
2023-09-05T06:39:52.094Z,70.95
2023-09-05T06:42:18.461Z,70.50
2023-09-05T06:44:44.829Z,70.71
2023-09-05T06:47:11.194Z,71.23
2023-09-05T06:49:37.562Z,71.06
2023-09-05T06:52:04.168Z,71.28
2023-09-05T06:54:30.565Z,71.53
2023-09-05T06:56:56.916Z,70.65
2023-09-05T06:59:23.365Z,70.97
2023-09-05T07:01:49.718Z,70.40
2023-09-05T07:04:16.085Z,70.37
2023-09-05T07:06:42.657Z,70.31
2023-09-05T07:09:09.063Z,70.17
2023-09-05T07:11:35.684Z,69.96
2023-09-05T07:14:02.080Z,69.84
2023-09-05T07:16:28.536Z,70.37
2023-09-05T07:18:54.921Z,69.33
2023-09-05T07:21:21.340Z,69.31
2023-09-05T07:23:47.731Z,69.09
2023-09-05T07:26:14.117Z,69.06
2023-09-05T07:28:40.464Z,69.06
2023-09-05T07:31:06.983Z,69.21
2023-09-05T07:33:33.372Z,68.42
2023-09-05T07:36:01.650Z,68.33
2023-09-05T07:38:28.491Z,67.15
2023-09-05T07:41:05.520Z,67.07
2023-09-05T07:43:32.533Z,66.63
2023-09-05T07:45:59.326Z,67.04
2023-09-05T07:48:26.054Z,67.88
2023-09-05T07:50:59.226Z,67.59
2023-09-05T07:53:25.586Z,67.20
2023-09-05T07:55:51.948Z,67.07
2023-09-05T07:58:18.938Z,66.77
2023-09-05T08:00:45.382Z,66.95
2023-09-05T08:03:11.897Z,65.58
2023-09-05T08:05:38.345Z,65.03
2023-09-05T08:08:05.073Z,64.93
2023-09-05T08:10:31.522Z,64.21
2023-09-05T08:12:57.865Z,64.90
2023-09-05T08:15:24.262Z,64.32
2023-09-05T08:17:50.666Z,64.48
2023-09-05T08:20:17.116Z,64.85
2023-09-05T08:22:43.809Z,64.14
2023-09-05T08:25:10.176Z,65.06
2023-09-05T08:27:37.010Z,63.87
2023-09-05T08:30:03.837Z,64.06
2023-09-05T08:32:30.433Z,64.14
2023-09-05T08:34:57.011Z,61.90
2023-09-05T08:37:23.364Z,63.30
2023-09-05T08:39:49.797Z,61.82
2023-09-05T08:42:16.163Z,62.75
2023-09-05T08:44:42.605Z,63.67
2023-09-05T08:47:09.200Z,61.58
2023-09-05T08:49:36.253Z,60.52
2023-09-05T08:52:04.315Z,61.12
2023-09-05T08:54:31.160Z,61.29
2023-09-05T08:56:59.169Z,60.87
2023-09-05T08:59:26.383Z,61.00
2023-09-05T09:01:54.188Z,61.10
2023-09-05T09:04:22.819Z,60.82
2023-09-05T09:06:58.262Z,60.37
2023-09-05T09:09:38.131Z,60.25
2023-09-05T09:12:05.011Z,60.33
2023-09-05T09:14:31.535Z,60.19
2023-09-05T09:17:02.559Z,60.51
2023-09-05T09:19:29.213Z,59.89
2023-09-05T09:21:59.687Z,58.25
2023-09-05T09:24:31.911Z,59.81
2023-09-05T09:26:58.326Z,58.65
2023-09-05T09:29:25.099Z,58.89
2023-09-05T09:31:59.918Z,56.89
2023-09-05T09:34:26.336Z,58.23
2023-09-05T09:36:52.787Z,58.96
2023-09-05T09:39:19.136Z,58.04
2023-09-05T09:41:46.613Z,58.34
2023-09-05T09:44:26.657Z,56.94
2023-09-05T09:46:54.351Z,57.66
2023-09-05T09:49:21.781Z,57.75
2023-09-05T09:51:57.186Z,56.68
2023-09-05T09:54:29.037Z,56.43
2023-09-05T09:56:58.911Z,57.92
2023-09-05T09:59:27.566Z,56.92
2023-09-05T10:01:56.974Z,57.24
2023-09-05T10:04:24.613Z,56.57
2023-09-05T10:06:53.207Z,56.26
2023-09-05T10:09:21.457Z,55.84
2023-09-05T10:11:50.006Z,56.82
2023-09-05T10:14:17.947Z,56.05
2023-09-05T10:16:45.515Z,53.89
2023-09-05T10:19:13.201Z,54.80
2023-09-05T10:21:39.972Z,53.17
2023-09-05T10:24:06.786Z,53.82
2023-09-05T10:26:33.144Z,56.04
2023-09-05T10:28:59.594Z,54.99
2023-09-05T10:31:26.278Z,53.57
2023-09-05T10:33:53.059Z,52.92
2023-09-05T10:36:41.981Z,52.17
2023-09-05T10:39:37.909Z,53.40
2023-09-05T10:42:04.396Z,52.72
2023-09-05T10:44:31.059Z,53.62
2023-09-05T10:47:32.868Z,54.41
2023-09-05T10:50:09.914Z,54.05
2023-09-05T10:52:37.304Z,52.46
2023-09-05T10:55:25.316Z,52.08
2023-09-05T10:57:52.415Z,53.12
2023-09-05T11:00:18.717Z,52.44
2023-09-05T11:02:47.675Z,52.43
2023-09-05T11:05:16.409Z,50.05
2023-09-05T11:07:42.823Z,52.33
2023-09-05T11:10:25.278Z,49.75
2023-09-05T11:12:51.702Z,51.59
2023-09-05T11:15:35.044Z,51.31
2023-09-05T11:18:06.388Z,50.94
2023-09-05T11:20:59.150Z,51.59
2023-09-05T11:23:25.713Z,52.05
2023-09-05T11:25:53.988Z,50.87
2023-09-05T11:28:22.189Z,49.41
2023-09-05T11:30:48.556Z,50.78
2023-09-05T11:33:16.353Z,50.46
2023-09-05T11:35:46.701Z,51.23
2023-09-05T11:38:17.375Z,51.03
2023-09-05T11:40:56.030Z,51.43
2023-09-05T11:43:23.557Z,49.35
2023-09-05T11:45:54.160Z,49.96
2023-09-05T11:48:22.964Z,49.40
2023-09-05T11:50:50.100Z,48.92
2023-09-05T11:53:19.915Z,49.52
2023-09-05T11:55:48.302Z,50.36
2023-09-05T11:58:15.309Z,51.00
2023-09-05T12:00:43.328Z,49.29
2023-09-05T12:03:10.007Z,51.36
2023-09-05T12:05:37.546Z,50.98
2023-09-05T12:08:08.115Z,51.09
2023-09-05T12:10:41.354Z,47.83
2023-09-05T12:13:08.107Z,49.31
2023-09-05T12:15:36.189Z,50.61
2023-09-05T12:18:06.148Z,49.50
2023-09-05T12:20:36.292Z,49.21
2023-09-05T12:23:03.629Z,50.01
2023-09-05T12:25:39.084Z,47.83
2023-09-05T12:28:15.412Z,49.79
2023-09-05T12:30:41.823Z,48.62
2023-09-05T12:33:08.296Z,47.74
2023-09-05T12:35:34.809Z,46.93
2023-09-05T12:38:04.428Z,48.34
2023-09-05T12:40:31.281Z,49.13
2023-09-05T12:42:57.660Z,47.85
2023-09-05T12:45:24.009Z,49.95
2023-09-05T12:47:50.392Z,49.31
2023-09-05T12:50:16.959Z,48.29
2023-09-05T12:52:44.150Z,47.29
2023-09-05T12:55:14.648Z,46.81
2023-09-05T12:57:42.430Z,46.86
2023-09-05T13:00:10.184Z,48.02
2023-09-05T13:02:37.663Z,49.85
2023-09-05T13:05:04.707Z,48.51
2023-09-05T13:07:31.254Z,48.39
2023-09-05T13:09:57.824Z,48.68
2023-09-05T13:12:24.334Z,48.61
2023-09-05T13:14:50.714Z,49.51
2023-09-05T13:17:17.619Z,46.88
2023-09-05T13:19:44.847Z,46.43
2023-09-05T13:22:12.052Z,47.63
2023-09-05T13:24:39.974Z,46.95
2023-09-05T13:27:07.307Z,49.62
2023-09-05T13:29:34.160Z,49.13
2023-09-05T13:32:00.648Z,49.23
2023-09-05T13:34:27.102Z,48.07
2023-09-05T13:36:53.828Z,51.01
2023-09-05T13:39:20.237Z,49.43
2023-09-05T13:41:46.734Z,45.33
2023-09-05T13:44:13.097Z,47.90
2023-09-05T13:46:39.536Z,46.81
2023-09-05T13:49:06.001Z,49.86
2023-09-05T13:51:32.447Z,47.30
2023-09-05T13:53:58.872Z,45.36
2023-09-05T13:56:25.258Z,46.17
2023-09-05T13:58:51.676Z,44.22
2023-09-05T14:01:18.094Z,45.12
2023-09-05T14:03:44.513Z,43.38
2023-09-05T14:06:10.961Z,44.41
2023-09-05T14:08:37.345Z,46.65
2023-09-05T14:11:03.804Z,45.43
2023-09-05T14:13:30.207Z,45.08
2023-09-05T14:15:56.622Z,44.32
2023-09-05T14:18:23.083Z,44.34
2023-09-05T14:20:49.515Z,45.89
2023-09-05T14:23:15.876Z,44.51
2023-09-05T14:25:42.305Z,45.52
2023-09-05T14:28:08.737Z,46.47
2023-09-05T14:30:35.224Z,45.10
2023-09-05T14:33:01.646Z,45.82
2023-09-05T14:35:27.986Z,46.44
2023-09-05T14:37:54.349Z,45.87
2023-09-05T14:40:20.739Z,46.61
2023-09-05T14:42:47.219Z,45.09
2023-09-05T14:45:13.689Z,46.20
2023-09-05T14:47:40.300Z,44.90
2023-09-05T14:50:07.294Z,46.68
2023-09-05T14:52:35.757Z,46.28
2023-09-05T14:55:08.636Z,46.46
2023-09-05T14:57:35.075Z,46.28
2023-09-05T15:00:01.551Z,46.28
2023-09-05T15:02:28.079Z,47.30
2023-09-05T15:04:54.477Z,46.57
2023-09-05T15:07:20.861Z,45.75
2023-09-05T15:09:47.284Z,45.58
2023-09-05T15:12:13.652Z,46.42
2023-09-05T15:14:40.000Z,46.44
2023-09-05T15:17:06.725Z,46.45
2023-09-05T15:19:33.395Z,46.48
2023-09-05T15:21:59.896Z,46.37
2023-09-05T15:24:26.333Z,45.65
2023-09-05T15:26:52.724Z,46.64
2023-09-05T15:29:19.105Z,46.01
2023-09-05T15:31:45.728Z,48.09
2023-09-05T15:34:12.242Z,46.97
2023-09-05T15:36:39.369Z,47.27
2023-09-05T15:39:06.186Z,46.50
2023-09-05T15:41:32.702Z,46.36
2023-09-05T15:43:59.246Z,47.74
2023-09-05T15:46:26.248Z,46.12
2023-09-05T15:48:52.669Z,48.57
2023-09-05T15:51:19.149Z,48.25
2023-09-05T15:53:45.606Z,48.55
2023-09-05T15:56:11.966Z,48.34
2023-09-05T15:58:38.496Z,47.82
2023-09-05T16:01:05.075Z,48.53
2023-09-05T16:03:31.546Z,47.61
2023-09-05T16:05:57.984Z,48.33
2023-09-05T16:08:24.632Z,49.50
2023-09-05T16:10:51.132Z,49.60
2023-09-05T16:13:17.638Z,48.63
2023-09-05T16:15:44.295Z,49.17
2023-09-05T16:18:11.496Z,48.98
2023-09-05T16:20:50.103Z,49.14
2023-09-05T16:23:22.198Z,49.24
2023-09-05T16:25:48.553Z,48.79
2023-09-05T16:28:14.912Z,49.19
2023-09-05T16:30:41.396Z,48.70
2023-09-05T16:33:07.807Z,48.98
2023-09-05T16:35:34.237Z,48.81
2023-09-05T16:38:00.604Z,49.43
2023-09-05T16:40:30.015Z,49.10
2023-09-05T16:42:56.382Z,49.28
2023-09-05T16:45:22.750Z,49.22
2023-09-05T16:47:49.197Z,49.27
2023-09-05T16:50:15.614Z,50.83
2023-09-05T16:52:41.969Z,50.29
2023-09-05T16:55:08.527Z,50.30
2023-09-05T16:57:34.916Z,51.42
2023-09-05T17:00:01.323Z,51.82
2023-09-05T17:02:27.724Z,52.15
2023-09-05T17:04:54.124Z,52.68
2023-09-05T17:07:20.494Z,52.48
2023-09-05T17:09:50.013Z,53.21
2023-09-05T17:12:17.014Z,53.30
2023-09-05T17:14:43.416Z,53.88
2023-09-05T17:17:09.768Z,54.04
2023-09-05T17:19:36.119Z,53.62
2023-09-05T17:22:02.506Z,53.87
2023-09-05T17:24:28.909Z,54.06
2023-09-05T17:26:55.297Z,54.66
2023-09-05T17:29:21.637Z,54.66
2023-09-05T17:31:48.087Z,54.89
2023-09-05T17:34:14.459Z,55.64
2023-09-05T17:36:40.878Z,55.26
2023-09-05T17:39:07.303Z,55.55
2023-09-05T17:41:33.679Z,55.44
2023-09-05T17:44:00.057Z,56.83
2023-09-05T17:46:26.495Z,57.11
2023-09-05T17:48:52.897Z,57.23
2023-09-05T17:51:19.359Z,57.91
2023-09-05T17:53:45.795Z,58.46
2023-09-05T17:56:12.176Z,59.05
2023-09-05T17:58:38.538Z,59.92
2023-09-05T18:01:11.332Z,60.37
2023-09-05T18:03:38.051Z,61.72
2023-09-05T18:06:04.615Z,62.46
2023-09-05T18:08:30.993Z,62.41
2023-09-05T18:11:05.924Z,62.48
2023-09-05T18:13:33.117Z,62.86
2023-09-05T18:16:04.376Z,63.51
2023-09-05T18:18:31.171Z,64.13
2023-09-05T18:21:01.212Z,64.18
2023-09-05T18:23:27.583Z,64.14
2023-09-05T18:25:53.949Z,64.17
2023-09-05T18:28:20.285Z,64.30
2023-09-05T18:30:46.717Z,64.57
2023-09-05T18:33:13.214Z,65.76
2023-09-05T18:35:39.599Z,66.61
2023-09-05T18:38:05.959Z,67.09
2023-09-05T18:40:32.342Z,67.96
2023-09-05T18:42:58.824Z,68.32
2023-09-05T18:45:25.332Z,68.89
2023-09-05T18:47:51.802Z,69.61
2023-09-05T18:50:18.276Z,70.13
2023-09-05T18:52:44.742Z,71.11
2023-09-05T18:55:11.296Z,71.53
2023-09-05T18:57:37.778Z,71.85
2023-09-05T19:00:04.770Z,71.89
2023-09-05T19:02:31.154Z,72.15
2023-09-05T19:04:57.495Z,72.45
2023-09-05T19:07:24.367Z,72.24
2023-09-05T19:09:50.860Z,72.68
2023-09-05T19:12:17.396Z,72.74
2023-09-05T19:14:43.788Z,73.71
2023-09-05T19:17:10.183Z,74.15
2023-09-05T19:19:36.691Z,74.75
2023-09-05T19:22:03.114Z,75.46
2023-09-05T19:24:29.531Z,76.42
2023-09-05T19:26:55.942Z,76.72
2023-09-05T19:29:22.299Z,76.61
2023-09-05T19:31:48.720Z,76.99
2023-09-05T19:34:15.151Z,77.14
2023-09-05T19:36:41.590Z,77.57
2023-09-05T19:39:08.033Z,77.80
2023-09-05T19:41:34.398Z,77.96
2023-09-05T19:44:00.774Z,77.54
2023-09-05T19:46:27.216Z,77.36
2023-09-05T19:48:53.718Z,77.47
2023-09-05T19:51:20.157Z,77.90
2023-09-05T19:53:46.584Z,77.59
2023-09-05T19:56:13.131Z,77.83
2023-09-05T19:58:39.526Z,78.37
2023-09-05T20:01:06.134Z,78.51
2023-09-05T20:03:32.739Z,79.11
2023-09-05T20:05:59.234Z,78.52
2023-09-05T20:08:25.894Z,79.02
2023-09-05T20:10:52.452Z,78.85
2023-09-05T20:13:18.846Z,79.09
2023-09-05T20:15:45.311Z,79.12
2023-09-05T20:18:11.815Z,79.81
2023-09-05T20:20:38.185Z,79.47
2023-09-05T20:23:04.837Z,79.85
2023-09-05T20:25:31.241Z,79.84
2023-09-05T20:27:57.667Z,80.17
2023-09-05T20:30:24.190Z,80.69
2023-09-05T20:32:50.617Z,80.61
2023-09-05T20:35:17.088Z,80.61
2023-09-05T20:37:43.453Z,81.06
2023-09-05T20:40:10.362Z,81.75
2023-09-05T20:42:37.657Z,82.19
2023-09-05T20:45:05.596Z,82.62
2023-09-05T20:47:32.141Z,82.16
2023-09-05T20:49:58.585Z,82.39
2023-09-05T20:52:24.957Z,82.28
2023-09-05T20:54:51.425Z,82.35
2023-09-05T20:57:17.801Z,82.73
2023-09-05T20:59:44.188Z,82.52
2023-09-05T21:02:10.677Z,82.54
2023-09-05T21:04:37.238Z,82.75
2023-09-05T21:07:03.936Z,83.20
2023-09-05T21:09:30.929Z,83.71
2023-09-05T21:11:57.777Z,83.95
2023-09-05T21:14:24.215Z,84.55
2023-09-05T21:16:51.502Z,84.98
2023-09-05T21:19:18.032Z,85.28
2023-09-05T21:21:45.035Z,85.59
2023-09-05T21:24:11.541Z,85.61
2023-09-05T21:26:37.917Z,86.13
2023-09-05T21:29:04.281Z,86.49
2023-09-05T21:31:30.770Z,86.44
2023-09-05T21:33:57.257Z,86.19
2023-09-05T21:36:23.758Z,86.56
2023-09-05T21:38:50.146Z,86.74
2023-09-05T21:41:16.504Z,86.82
2023-09-05T21:43:42.920Z,86.85
2023-09-05T21:46:09.427Z,86.37
2023-09-05T21:48:35.938Z,87.27
2023-09-05T21:51:02.377Z,87.53
2023-09-05T21:53:28.768Z,87.25
2023-09-05T21:55:55.164Z,87.09
2023-09-05T21:58:21.623Z,86.41
2023-09-05T22:00:48.213Z,86.75
2023-09-05T22:03:14.911Z,86.46
2023-09-05T22:05:41.436Z,86.22
2023-09-05T22:08:07.990Z,86.85
2023-09-05T22:10:35.096Z,87.16
2023-09-05T22:13:02.347Z,86.91
2023-09-05T22:15:29.478Z,87.58
2023-09-05T22:17:55.944Z,88.05
2023-09-05T22:20:22.334Z,87.97
2023-09-05T22:22:48.686Z,87.84
2023-09-05T22:25:15.135Z,87.71
2023-09-05T22:27:41.592Z,87.08
2023-09-05T22:30:09.642Z,86.98
2023-09-05T22:32:37.276Z,86.87
2023-09-05T22:35:03.873Z,87.65
2023-09-05T22:37:30.237Z,87.40
2023-09-05T22:39:56.703Z,87.16
2023-09-05T22:42:23.207Z,87.09
2023-09-05T22:44:49.666Z,87.34
2023-09-05T22:47:16.023Z,87.30
2023-09-05T22:49:42.383Z,87.80
2023-09-05T22:52:08.767Z,87.71
2023-09-05T22:54:35.205Z,88.73
2023-09-05T22:57:01.590Z,89.29
2023-09-05T22:59:27.965Z,88.94
2023-09-05T23:01:54.451Z,88.97
2023-09-05T23:04:20.849Z,88.54
2023-09-05T23:06:47.330Z,88.89
2023-09-05T23:09:13.716Z,89.14
2023-09-05T23:11:40.076Z,88.61
2023-09-05T23:14:06.457Z,88.44
2023-09-05T23:16:32.935Z,88.23
2023-09-05T23:18:59.471Z,88.50
2023-09-05T23:21:25.920Z,88.46
2023-09-05T23:23:52.289Z,89.11
2023-09-05T23:26:18.658Z,89.10
2023-09-05T23:28:45.010Z,89.29
2023-09-05T23:31:11.406Z,89.27
2023-09-05T23:33:37.822Z,89.25
2023-09-05T23:36:04.265Z,89.34
2023-09-05T23:38:30.779Z,88.74
2023-09-05T23:40:57.178Z,88.74
2023-09-05T23:43:23.644Z,89.08
2023-09-05T23:45:54.784Z,89.02
2023-09-05T23:48:21.330Z,89.05
2023-09-05T23:50:47.772Z,89.19
2023-09-05T23:53:14.140Z,89.05
2023-09-05T23:55:41.582Z,89.12
2023-09-05T23:58:07.972Z,88.69
